Terminal Aerodrome Forecast
Issued by NWS

Home | Current Version | Previous Version | Text Only | Print | Product List | Glossary On
Versions: 1 2 3 4 5 6 7 8 9 10 11 12
000
FTAK31 PAJN 282324
TAFAWG
TAF
PAWG 282324Z 2900/2924 27009KT P6SM VCSH SCT030 BKN050
     FM290200 26005KT P6SM VCSH SCT015 OVC035
     FM290800 VRB04KT P6SM BKN015 OVC025
     FM291800 28007KT P6SM VCSH SCT015 BKN025 OVC040
      AMD LTD TO CLD VIS AND WIND 2906/2915=

USA.gov is the U.S. government's official web portal to all federal, state and local government web resources and services.